Time;durP1;ratioP1;P1;durP2;ratioP2;P2;SDS_P1;SDS_P2;PMS_P1;PMS_P2;Temp;Humidity;BMP_temperature;BMP_pressure;BME280_temperature;BME280_humidity;BME280_pressure;Samples;Min_cycle;Max_cycle;Signal;HPM_P1;HPM_P2
2023/04/13 00:02:19;;;;;;;2.00;1.10;;;;;;;4.82;100.00;98767.75;4999987;28;20690;-71
2023/04/13 00:04:44;;;;;;;1.13;1.10;;;;;;;4.82;100.00;98772.84;5003369;28;20188;-71
2023/04/13 00:07:13;;;;;;;4.33;1.60;;;;;;;4.76;100.00;98769.81;5016480;28;20197;-71
2023/04/13 00:09:39;;;;;;;1.47;1.00;;;;;;;4.78;100.00;98765.47;5020700;28;20232;-69
2023/04/13 00:12:04;;;;;;;1.07;1.03;;;;;;;4.87;100.00;98767.53;5007400;28;20297;-69
2023/04/13 00:14:33;;;;;;;1.63;1.37;;;;;;;4.96;100.00;98761.13;5020274;28;20196;-70
2023/04/13 00:16:59;;;;;;;1.57;1.20;;;;;;;4.94;100.00;98756.13;5031306;28;20169;-71
2023/04/13 00:19:24;;;;;;;1.53;1.10;;;;;;;4.84;100.00;98755.78;5018330;28;20291;-69
2023/04/13 00:21:52;;;;;;;1.20;1.20;;;;;;;4.79;100.00;98755.19;5015480;28;20378;-70
2023/04/13 00:24:18;;;;;;;1.77;0.97;;;;;;;4.94;100.00;98750.22;5027001;28;20187;-71
2023/04/13 00:26:44;;;;;;;1.33;0.80;;;;;;;4.90;100.00;98752.09;5011931;28;20176;-69
2023/04/13 00:29:11;;;;;;;1.87;1.03;;;;;;;4.76;100.00;98751.97;5026404;28;20200;-70
2023/04/13 00:31:36;;;;;;;2.93;1.07;;;;;;;4.88;100.00;98748.78;5021974;28;20224;-69
2023/04/13 00:34:02;;;;;;;2.83;1.30;;;;;;;4.82;100.00;98746.56;5014773;28;20187;-70
2023/04/13 00:36:28;;;;;;;1.47;1.30;;;;;;;4.85;100.00;98748.97;5011279;28;20190;-69
2023/04/13 00:38:56;;;;;;;1.37;1.03;;;;;;;4.79;100.00;98755.19;5011422;28;20597;-69
2023/04/13 00:41:23;;;;;;;5.53;1.00;;;;;;;4.86;100.00;98748.03;5011231;28;20575;-69
2023/04/13 00:43:48;;;;;;;2.87;1.37;;;;;;;4.82;100.00;98744.03;5033265;28;20659;-69
2023/04/13 00:46:15;;;;;;;2.00;1.23;;;;;;;4.84;100.00;98744.78;5012532;28;20187;-69
2023/04/13 00:48:40;;;;;;;2.60;1.23;;;;;;;4.60;100.00;98741.75;5012359;28;20227;-69
2023/04/13 00:51:06;;;;;;;1.23;1.07;;;;;;;4.55;100.00;98736.91;5013968;28;20229;-69
2023/04/13 00:53:32;;;;;;;1.53;1.10;;;;;;;4.60;100.00;98747.69;5042137;28;20188;-70
2023/04/13 00:55:59;;;;;;;1.43;1.03;;;;;;;4.53;100.00;98746.38;5033460;28;20217;-70
2023/04/13 00:58:26;;;;;;;2.40;1.20;;;;;;;4.63;100.00;98746.72;5019795;28;20631;-70
2023/04/13 01:00:51;;;;;;;2.63;1.00;;;;;;;4.57;100.00;98740.19;5022816;28;20234;-70
2023/04/13 01:03:17;;;;;;;1.50;0.87;;;;;;;4.61;100.00;98741.69;5010039;28;20597;-71
2023/04/13 01:05:52;;;;;;;3.37;1.13;;;;;;;4.77;100.00;98746.00;5033471;28;20187;-71
2023/04/13 01:08:45;;;;;;;3.57;1.00;;;;;;;4.73;100.00;98742.78;5031811;28;20221;-69
2023/04/13 01:11:18;;;;;;;5.00;1.20;;;;;;;4.78;100.00;98750.19;5002840;28;20587;-70
2023/04/13 01:13:51;;;;;;;1.57;1.30;;;;;;;4.84;100.00;98745.59;5016663;28;20187;-71
2023/04/13 01:16:24;;;;;;;1.50;1.00;;;;;;;4.79;100.00;98747.56;5015052;28;20178;-71
2023/04/13 01:18:53;;;;;;;2.27;1.00;;;;;;;4.81;100.00;98753.41;5014303;28;20211;-70
2023/04/13 01:21:23;;;;;;;1.90;1.07;;;;;;;4.78;100.00;98751.00;5022830;28;20233;-71
2023/04/13 01:24:09;;;;;;;2.23;1.20;;;;;;;4.74;100.00;98741.88;5025949;28;20211;-71
2023/04/13 01:26:49;;;;;;;2.60;1.10;;;;;;;4.64;100.00;98744.09;5010495;28;20182;-70
2023/04/13 01:29:16;;;;;;;1.50;1.03;;;;;;;4.55;100.00;98748.81;5032464;28;20730;-71
2023/04/13 01:32:01;;;;;;;1.53;1.10;;;;;;;4.69;100.00;98752.31;4988146;28;20259;-72
2023/04/13 01:34:27;;;;;;;3.83;1.00;;;;;;;4.63;100.00;98751.81;4976065;28;20538;-72
2023/04/13 01:36:53;;;;;;;2.73;1.33;;;;;;;4.66;100.00;98755.03;4984979;28;20202;-70
2023/04/13 01:39:19;;;;;;;5.77;1.70;;;;;;;4.69;100.00;98751.50;5011282;28;20191;-71
2023/04/13 01:41:45;;;;;;;4.93;1.40;;;;;;;4.69;100.00;98751.50;4992773;28;20662;-70
2023/04/13 01:44:11;;;;;;;6.83;1.40;;;;;;;4.58;100.00;98759.69;4989128;28;20266;-70
2023/04/13 01:46:44;;;;;;;7.20;1.53;;;;;;;4.62;100.00;98758.59;4991989;28;20188;-70
2023/04/13 01:49:10;;;;;;;3.67;1.57;;;;;;;4.62;100.00;98743.31;5007935;28;20250;-70
2023/04/13 01:51:36;;;;;;;2.87;1.13;;;;;;;4.64;100.00;98745.78;4994302;28;20237;-69
2023/04/13 01:54:09;;;;;;;2.67;1.30;;;;;;;4.73;100.00;98745.31;4994742;28;20654;-69
2023/04/13 01:56:37;;;;;;;3.17;1.43;;;;;;;4.73;100.00;98739.41;5011435;28;20190;-69
2023/04/13 01:59:04;;;;;;;4.73;1.47;;;;;;;4.68;100.00;98737.91;5010249;28;20211;-69
2023/04/13 02:01:29;;;;;;;1.27;1.17;;;;;;;4.55;100.00;98742.00;5001214;28;20240;-69
2023/04/13 02:03:55;;;;;;;5.53;1.30;;;;;;;4.60;100.00;98734.97;5027366;28;20196;-68
2023/04/13 02:06:21;;;;;;;3.97;1.30;;;;;;;4.69;100.00;98742.13;5029285;28;20187;-69
2023/04/13 02:08:47;;;;;;;2.70;1.07;;;;;;;4.80;100.00;98750.91;5028548;28;20187;-69
2023/04/13 02:11:12;;;;;;;3.17;1.23;;;;;;;4.75;100.00;98747.78;5021918;28;20258;-70
2023/04/13 02:13:38;;;;;;;1.77;1.20;;;;;;;4.71;100.00;98748.84;5028726;28;20206;-71
2023/04/13 02:16:05;;;;;;;4.90;1.53;;;;;;;4.79;100.00;98749.28;5028988;28;20187;-70
2023/04/13 02:18:32;;;;;;;3.83;1.30;;;;;;;5.05;100.00;98752.16;5012270;28;20211;-70
2023/04/13 02:21:10;;;;;;;3.83;1.33;;;;;;;5.13;100.00;98747.50;5021311;28;20218;-70
2023/04/13 02:23:36;;;;;;;4.67;1.60;;;;;;;5.35;100.00;98749.69;5020110;28;20176;-70
2023/04/13 02:26:03;;;;;;;2.43;1.50;;;;;;;5.41;100.00;98746.81;5012551;28;20224;-70
2023/04/13 02:28:29;;;;;;;3.97;1.47;;;;;;;5.50;100.00;98748.84;5013591;28;20214;-70
2023/04/13 02:30:55;;;;;;;5.90;1.30;;;;;;;5.60;100.00;98754.25;5009498;28;20236;-70
2023/04/13 02:33:21;;;;;;;3.77;1.40;;;;;;;5.75;100.00;98754.31;5012718;28;20556;-70
2023/04/13 02:35:47;;;;;;;5.80;1.80;;;;;;;5.78;100.00;98754.97;5028719;28;20183;-70
2023/04/13 02:38:14;;;;;;;3.63;1.53;;;;;;;5.86;100.00;98762.19;5018521;28;20192;-71
2023/04/13 02:40:40;;;;;;;3.03;1.50;;;;;;;5.92;100.00;98755.94;5013332;28;20314;-71
2023/04/13 02:43:05;;;;;;;4.73;1.60;;;;;;;6.06;100.00;98748.31;5018713;28;20633;-70
2023/04/13 02:45:31;;;;;;;4.70;1.40;;;;;;;6.04;100.00;98750.16;5034951;28;20198;-70
2023/04/13 02:47:57;;;;;;;6.43;1.63;;;;;;;5.92;100.00;98743.97;5021302;28;20190;-71
2023/04/13 02:50:22;;;;;;;4.40;1.60;;;;;;;5.95;100.00;98751.47;4996974;28;20238;-70
2023/04/13 02:52:48;;;;;;;3.10;1.43;;;;;;;6.09;100.00;98747.31;5017659;28;20185;-70
2023/04/13 02:55:13;;;;;;;4.77;1.73;;;;;;;6.13;100.00;98741.16;5035296;28;20193;-71
2023/04/13 02:57:41;;;;;;;4.23;1.30;;;;;;;6.04;100.00;98739.94;5027779;28;20244;-70
2023/04/13 03:00:10;;;;;;;3.87;1.43;;;;;;;6.03;100.00;98745.13;4991186;28;20181;-71
2023/04/13 03:02:36;;;;;;;5.60;1.60;;;;;;;6.03;100.00;98740.00;5026688;28;20181;-70
2023/04/13 03:05:04;;;;;;;5.77;1.40;;;;;;;6.05;100.00;98735.66;5028253;28;20195;-72
2023/04/13 03:07:30;;;;;;;4.17;1.20;;;;;;;6.03;100.00;98740.84;5011897;28;20189;-70
2023/04/13 03:09:56;;;;;;;4.57;1.10;;;;;;;6.14;100.00;98738.50;5010325;28;20213;-71
2023/04/13 03:12:21;;;;;;;4.23;1.30;;;;;;;6.14;100.00;98738.50;5018614;28;20656;-71
2023/04/13 03:14:48;;;;;;;5.53;1.43;;;;;;;6.21;100.00;98736.38;5011586;28;20186;-73
2023/04/13 03:17:14;;;;;;;3.43;1.40;;;;;;;6.38;100.00;98739.72;5005056;28;20222;-72
2023/04/13 03:19:39;;;;;;;3.30;1.10;;;;;;;6.28;100.00;98736.88;5023947;28;20620;-73
2023/04/13 03:22:05;;;;;;;4.10;1.40;;;;;;;6.25;100.00;98735.31;5017821;28;20685;-70
2023/04/13 03:24:31;;;;;;;2.90;1.27;;;;;;;6.31;100.00;98734.13;5011026;28;20523;-71
2023/04/13 03:26:56;;;;;;;6.47;1.73;;;;;;;6.22;100.00;98735.47;5027995;28;20305;-70
2023/04/13 03:29:25;;;;;;;4.30;1.53;;;;;;;6.26;100.00;98736.13;5012226;28;20210;-72
2023/04/13 03:31:50;;;;;;;6.10;1.87;;;;;;;6.43;100.00;98733.41;4982796;28;20701;-70
2023/04/13 03:34:17;;;;;;;4.20;1.60;;;;;;;6.36;100.00;98732.13;5010630;28;20227;-71
2023/04/13 03:36:42;;;;;;;3.40;1.40;;;;;;;6.50;100.00;98733.88;5012462;28;20182;-71
2023/04/13 03:39:08;;;;;;;6.83;1.10;;;;;;;6.59;100.00;98733.31;5010398;28;20530;-71
2023/04/13 03:41:33;;;;;;;7.30;1.70;;;;;;;6.47;100.00;98734.03;5013911;28;20307;-72
2023/04/13 03:43:58;;;;;;;4.37;1.73;;;;;;;6.72;100.00;98730.84;5015724;28;20197;-72
2023/04/13 03:46:24;;;;;;;3.90;1.50;;;;;;;6.61;100.00;98734.06;5007437;28;20176;-72
2023/04/13 03:48:49;;;;;;;5.00;1.53;;;;;;;6.51;100.00;98729.56;5020446;28;20237;-74
2023/04/13 03:51:15;;;;;;;3.63;1.50;;;;;;;6.50;100.00;98733.03;5011527;28;20736;-71
2023/04/13 03:53:40;;;;;;;5.23;1.50;;;;;;;6.55;100.00;98743.78;5027386;28;20201;-71
2023/04/13 03:56:06;;;;;;;4.10;1.37;;;;;;;6.50;100.00;98741.53;5012294;28;20189;-72
2023/04/13 03:58:31;;;;;;;6.40;1.63;;;;;;;6.51;100.00;98739.78;5011822;28;20182;-73
2023/04/13 04:00:57;;;;;;;5.40;1.53;;;;;;;6.48;100.00;98740.78;5019172;28;20218;-71
2023/04/13 04:03:24;;;;;;;6.37;1.50;;;;;;;6.51;100.00;98740.63;5030377;28;20699;-71
2023/04/13 04:05:50;;;;;;;8.17;1.70;;;;;;;6.44;100.00;98747.81;5029873;28;20227;-70
2023/04/13 04:08:15;;;;;;;5.23;1.43;;;;;;;6.50;100.00;98749.19;5033229;28;20190;-71
2023/04/13 04:10:40;;;;;;;2.70;1.17;;;;;;;6.49;100.00;98751.81;5005735;28;20253;-71
2023/04/13 04:13:06;;;;;;;5.40;1.93;;;;;;;6.57;100.00;98744.53;5032638;28;20281;-71
2023/04/13 04:15:31;;;;;;;8.53;1.60;;;;;;;6.51;100.00;98744.91;5029939;28;20181;-71
2023/04/13 04:17:56;;;;;;;8.13;1.90;;;;;;;6.51;100.00;98747.47;5029870;28;20186;-72
2023/04/13 04:20:21;;;;;;;4.97;2.10;;;;;;;6.55;100.00;98748.91;5021520;28;20792;-73
2023/04/13 04:22:49;;;;;;;5.53;1.40;;;;;;;6.52;100.00;98755.03;5028069;28;20710;-71
2023/04/13 04:25:20;;;;;;;3.97;1.40;;;;;;;6.54;100.00;98753.22;5003592;28;20249;-71
2023/04/13 04:27:49;;;;;;;3.57;1.63;;;;;;;6.59;100.00;98755.50;5015948;28;20193;-71
2023/04/13 04:30:17;;;;;;;4.57;1.60;;;;;;;6.81;100.00;98760.16;5021682;28;20534;-71
2023/04/13 04:32:42;;;;;;;7.03;1.70;;;;;;;6.57;100.00;98754.75;5025825;28;20201;-71
2023/04/13 04:35:10;;;;;;;6.57;1.87;;;;;;;6.66;100.00;98767.00;5030605;28;20234;-72
2023/04/13 04:37:36;;;;;;;5.50;1.67;;;;;;;6.73;100.00;98765.69;5027552;28;20178;-71
2023/04/13 04:40:09;;;;;;;8.27;1.87;;;;;;;6.77;100.00;98756.94;5022098;28;20185;-72
2023/04/13 04:42:36;;;;;;;6.17;1.87;;;;;;;6.73;100.00;98765.69;5007281;28;20219;-72
2023/04/13 04:45:03;;;;;;;3.90;1.70;;;;;;;6.72;100.00;98773.47;5015532;28;20210;-71
2023/04/13 04:47:29;;;;;;;3.90;1.63;;;;;;;6.51;100.00;98773.00;5015487;28;20186;-71
2023/04/13 04:49:56;;;;;;;3.60;1.70;;;;;;;6.47;100.00;98777.47;5030013;28;20585;-71
2023/04/13 04:52:24;;;;;;;5.03;1.80;;;;;;;6.63;100.00;98780.75;5021333;28;20240;-72
2023/04/13 04:54:50;;;;;;;5.83;1.97;;;;;;;6.73;100.00;98782.78;5030552;28;20182;-72
2023/04/13 04:57:17;;;;;;;3.87;1.57;;;;;;;6.65;100.00;98774.72;5030852;28;20191;-71
2023/04/13 04:59:42;;;;;;;4.87;1.97;;;;;;;6.73;100.00;98786.13;5014896;28;20772;-72
2023/04/13 05:02:07;;;;;;;7.87;1.77;;;;;;;6.89;100.00;98786.03;5005887;28;20296;-73
2023/04/13 05:04:33;;;;;;;5.13;1.80;;;;;;;6.83;100.00;98790.72;5030648;28;20187;-72
2023/04/13 05:06:58;;;;;;;4.27;1.83;;;;;;;6.86;100.00;98787.97;5031096;28;20182;-72
2023/04/13 05:09:24;;;;;;;4.63;1.80;;;;;;;6.60;100.00;98793.72;5030033;28;20207;-70
2023/04/13 05:11:49;;;;;;;5.13;1.70;;;;;;;6.56;100.00;98792.28;5022598;28;20229;-72
2023/04/13 05:14:14;;;;;;;4.23;1.77;;;;;;;6.63;100.00;98796.09;5029917;28;20273;-71
2023/04/13 05:16:40;;;;;;;8.43;1.90;;;;;;;6.72;100.00;98792.19;5029715;28;20919;-72
2023/04/13 05:19:07;;;;;;;4.53;2.10;;;;;;;6.72;100.00;98802.41;5022048;28;20221;-71
2023/04/13 05:21:33;;;;;;;7.47;1.90;;;;;;;6.70;100.00;98800.81;5005463;28;20229;-72
2023/04/13 05:23:58;;;;;;;5.87;1.70;;;;;;;6.71;100.00;98803.31;5028997;28;20181;-73
2023/04/13 05:26:24;;;;;;;5.50;2.30;;;;;;;6.62;100.00;98811.50;5029634;28;20535;-71
2023/04/13 05:28:50;;;;;;;7.23;2.03;;;;;;;6.56;100.00;98812.72;5026996;28;20491;-71
2023/04/13 05:31:15;;;;;;;7.47;1.90;;;;;;;6.56;100.00;98807.59;5021783;28;20236;-71
2023/04/13 05:33:40;;;;;;;7.60;2.50;;;;;;;6.62;100.00;98819.19;5013007;28;20266;-72
2023/04/13 05:36:07;;;;;;;4.63;1.97;;;;;;;6.69;100.00;98820.47;5027911;28;20709;-71
2023/04/13 05:38:32;;;;;;;5.33;1.83;;;;;;;6.69;100.00;98815.34;5024653;28;20274;-72
2023/04/13 05:40:58;;;;;;;5.17;2.10;;;;;;;6.75;100.00;98822.66;5018097;28;20361;-72
2023/04/13 05:43:23;;;;;;;7.40;2.07;;;;;;;6.75;100.00;98817.53;5032668;28;20178;-71
2023/04/13 05:45:49;;;;;;;3.77;1.77;;;;;;;6.94;100.00;98813.91;5016543;28;20646;-71
2023/04/13 05:48:14;;;;;;;7.90;2.20;;;;;;;6.99;100.00;98827.22;5037608;28;20208;-70
2023/04/13 05:50:40;;;;;;;8.90;2.80;;;;;;;7.17;100.00;98824.47;5018287;28;21167;-70
2023/04/13 05:53:05;;;;;;;6.70;2.10;;;;;;;7.33;100.00;98830.31;5021333;28;20185;-71
2023/04/13 05:55:31;;;;;;;6.73;2.53;;;;;;;7.47;100.00;98820.94;5030172;28;20277;-70
2023/04/13 05:57:57;;;;;;;9.97;2.53;;;;;;;7.31;100.00;98815.97;5029078;28;20201;-70
2023/04/13 06:00:23;;;;;;;7.17;1.87;;;;;;;7.41;100.00;98829.81;5015109;28;20277;-71
2023/04/13 06:02:49;;;;;;;9.33;1.97;;;;;;;7.42;100.00;98824.59;5043563;28;20718;-69
2023/04/13 06:05:16;;;;;;;8.50;2.17;;;;;;;7.42;100.00;98832.28;5021427;28;20625;-70
2023/04/13 06:07:43;;;;;;;9.40;2.20;;;;;;;7.43;100.00;98828.00;5020907;28;20711;-71
2023/04/13 06:10:10;;;;;;;9.73;2.27;;;;;;;7.39;100.00;98829.09;5025266;28;20203;-71
2023/04/13 06:12:35;;;;;;;9.93;3.10;;;;;;;7.38;100.00;98835.09;5028605;28;20194;-70
2023/04/13 06:15:01;;;;;;;9.57;2.00;;;;;;;7.27;100.00;98841.72;5036506;28;20194;-70
2023/04/13 06:17:26;;;;;;;7.43;2.10;;;;;;;7.34;100.00;98834.47;5030166;28;20182;-70
2023/04/13 06:19:53;;;;;;;6.73;2.67;;;;;;;7.29;100.00;98841.63;5030386;28;20810;-70
2023/04/13 06:22:18;;;;;;;7.23;2.13;;;;;;;7.51;100.00;98847.97;5021167;28;20637;-71
2023/04/13 06:24:44;;;;;;;8.10;2.00;;;;;;;7.47;100.00;98847.34;5045497;28;20229;-71
2023/04/13 06:27:10;;;;;;;5.17;1.63;;;;;;;7.53;100.00;98852.09;5031587;28;20202;-71
2023/04/13 06:29:36;;;;;;;9.23;2.60;;;;;;;7.63;100.00;98849.78;5017441;28;20573;-70
2023/04/13 06:32:03;;;;;;;5.47;2.00;;;;;;;7.78;100.00;98865.91;5004472;28;20297;-71
2023/04/13 06:34:28;;;;;;;12.47;2.27;;;;;;;7.99;100.00;98856.06;5026256;28;20190;-72
2023/04/13 06:36:53;;;;;;;9.60;2.40;;;;;;;8.69;100.00;98857.50;5047929;28;20521;-72
2023/04/13 06:39:19;;;;;;;6.83;2.20;;;;;;;9.18;100.00;98857.72;5017147;28;20243;-70
2023/04/13 06:41:44;;;;;;;6.77;2.17;;;;;;;9.51;100.00;98857.13;5022957;28;20225;-71
2023/04/13 06:44:09;;;;;;;4.43;1.90;;;;;;;9.96;100.00;98864.22;5031829;28;20178;-71
2023/04/13 06:46:35;;;;;;;8.90;2.30;;;;;;;10.33;100.00;98859.00;5028639;28;20186;-70
2023/04/13 06:49:00;;;;;;;8.60;2.27;;;;;;;10.16;100.00;98873.06;5044515;28;20241;-71
2023/04/13 06:51:26;;;;;;;7.07;2.37;;;;;;;10.03;100.00;98880.00;4999175;28;20273;-70
2023/04/13 06:53:52;;;;;;;5.27;1.47;;;;;;;9.78;100.00;98876.63;5020802;28;20190;-69
2023/04/13 06:56:17;;;;;;;4.30;1.73;;;;;;;9.97;100.00;98885.59;5034788;28;20231;-71
2023/04/13 06:58:44;;;;;;;5.43;2.03;;;;;;;9.61;100.00;98884.69;5018603;28;20704;-72
2023/04/13 07:01:09;;;;;;;8.23;2.37;;;;;;;9.31;100.00;98891.84;5010909;28;20214;-70
2023/04/13 07:03:34;;;;;;;9.97;2.50;;;;;;;9.09;100.00;98882.25;5031692;28;20187;-71
2023/04/13 07:06:00;;;;;;;8.87;2.63;;;;;;;9.28;100.00;98879.25;5012086;28;20623;-61
2023/04/13 07:08:26;;;;;;;5.03;2.00;;;;;;;9.09;100.00;98877.13;5027272;28;20207;-70
2023/04/13 07:10:53;;;;;;;8.07;2.53;;;;;;;8.81;100.00;98873.84;5007656;28;20295;-70
2023/04/13 07:13:18;;;;;;;5.60;1.70;;;;;;;10.10;100.00;98888.94;5027344;28;20224;-71
2023/04/13 07:15:43;;;;;;;6.90;2.17;;;;;;;10.90;100.00;98884.84;5025898;28;20260;-68
2023/04/13 07:18:08;;;;;;;7.07;2.27;;;;;;;10.60;100.00;98896.47;5030108;28;20549;-69
2023/04/13 07:20:35;;;;;;;6.77;1.90;;;;;;;10.77;100.00;98904.72;5020378;28;20268;-69
2023/04/13 07:23:00;;;;;;;6.37;1.97;;;;;;;10.87;100.00;98895.34;5040600;28;20236;-68
2023/04/13 07:25:25;;;;;;;7.30;2.03;;;;;;;10.79;100.00;98902.81;5030202;28;20633;-69
2023/04/13 07:27:51;;;;;;;4.87;1.87;;;;;;;11.09;100.00;98897.13;5018439;28;20677;-67
2023/04/13 07:30:16;;;;;;;6.17;2.23;;;;;;;11.04;100.00;98894.09;4988827;28;20190;-70
2023/04/13 07:32:42;;;;;;;5.63;1.83;;;;;;;11.92;100.00;98891.63;5028350;28;20189;-68
2023/04/13 07:35:07;;;;;;;4.70;2.00;;;;;;;12.38;100.00;98898.28;5031338;28;20190;-69
2023/04/13 07:37:33;;;;;;;8.97;2.13;;;;;;;11.76;100.00;98904.91;5017833;28;20201;-70
2023/04/13 07:39:59;;;;;;;5.97;2.37;;;;;;;12.02;100.00;98902.88;5025462;28;20415;-69
2023/04/13 07:42:24;;;;;;;6.10;2.33;;;;;;;11.50;100.00;98912.91;5021842;28;20617;-68
2023/04/13 07:44:53;;;;;;;7.17;2.00;;;;;;;10.85;100.00;98914.41;5025361;28;20241;-69
2023/04/13 07:47:18;;;;;;;6.03;1.87;;;;;;;10.47;100.00;98924.84;5018819;28;20217;-68
2023/04/13 07:49:43;;;;;;;7.20;2.43;;;;;;;10.05;100.00;98932.13;5007820;28;20651;-71
2023/04/13 07:52:09;;;;;;;4.17;1.83;;;;;;;10.17;100.00;98932.97;4998836;28;20214;-70
2023/04/13 07:54:35;;;;;;;5.80;1.90;;;;;;;10.21;100.00;98939.56;5010332;28;20182;-69
2023/04/13 07:57:01;;;;;;;5.77;1.90;;;;;;;9.98;100.00;98936.03;5011971;28;20661;-70
2023/04/13 07:59:28;;;;;;;5.20;1.90;;;;;;;9.78;100.00;98945.97;5021527;28;20171;-69
2023/04/13 08:01:53;;;;;;;4.40;1.90;;;;;;;9.73;100.00;98947.22;5007830;28;20234;-69
2023/04/13 08:04:18;;;;;;;5.53;2.20;;;;;;;9.64;100.00;98946.13;5004055;28;20522;-69
2023/04/13 08:06:44;;;;;;;5.37;2.17;;;;;;;10.06;100.00;98941.47;5038091;28;20228;-69
2023/04/13 08:09:10;;;;;;;5.77;2.27;;;;;;;10.55;100.00;98938.91;5021083;28;20867;-71
2023/04/13 08:11:35;;;;;;;5.97;2.03;;;;;;;11.01;100.00;98939.81;5011844;28;20684;-69
2023/04/13 08:14:00;;;;;;;7.50;2.63;;;;;;;12.78;100.00;98932.09;5026345;28;20226;-68
2023/04/13 08:16:26;;;;;;;7.00;2.70;;;;;;;13.20;95.25;98932.84;5038993;28;20186;-70
2023/04/13 08:18:51;;;;;;;4.23;1.60;;;;;;;13.08;94.22;98933.88;5039224;28;20198;-70
2023/04/13 08:21:17;;;;;;;3.53;1.80;;;;;;;13.07;94.13;98938.22;5022617;28;20229;-70
2023/04/13 08:23:43;;;;;;;6.47;2.10;;;;;;;12.62;97.32;98951.38;5037564;28;20599;-71
2023/04/13 08:26:17;;;;;;;4.40;1.90;;;;;;;13.02;96.69;98940.38;5019880;28;20238;-70
2023/04/13 08:28:42;;;;;;;4.57;1.77;;;;;;;13.09;95.47;98945.84;5014953;28;20186;-71
2023/04/13 08:31:08;;;;;;;3.93;1.60;;;;;;;12.33;98.61;98949.41;5006538;28;20240;-69
2023/04/13 08:33:33;;;;;;;5.37;2.07;;;;;;;11.50;100.00;98958.44;5010729;28;20603;-70
2023/04/13 08:35:58;;;;;;;5.87;2.07;;;;;;;11.46;100.00;98956.09;5040012;28;20217;-70
2023/04/13 08:38:23;;;;;;;4.30;1.87;;;;;;;11.09;100.00;98958.09;5028548;28;20638;-71
2023/04/13 08:40:49;;;;;;;6.37;2.00;;;;;;;11.63;100.00;98961.72;5021723;28;20263;-68
2023/04/13 08:43:16;;;;;;;3.97;1.73;;;;;;;12.29;100.00;98963.47;5040007;28;20174;-67
2023/04/13 08:45:42;;;;;;;4.70;1.60;;;;;;;12.26;100.00;98966.31;5031323;28;20682;-65
2023/04/13 08:48:10;;;;;;;3.17;1.50;;;;;;;11.56;100.00;98968.25;5007899;28;20187;-68
2023/04/13 08:50:36;;;;;;;3.50;1.57;;;;;;;11.39;100.00;98970.38;5016293;28;20233;-71
2023/04/13 08:53:02;;;;;;;4.10;1.97;;;;;;;11.33;100.00;98964.91;5018290;28;20202;-64
2023/04/13 08:55:28;;;;;;;4.13;1.67;;;;;;;11.67;100.00;98967.44;5017739;28;20658;-63
2023/04/13 08:57:56;;;;;;;7.00;1.90;;;;;;;12.29;100.00;98976.38;5001294;28;20238;-64
2023/04/13 09:00:23;;;;;;;3.37;1.40;;;;;;;12.57;100.00;98972.38;5004426;28;20646;-63
2023/04/13 09:02:57;;;;;;;3.37;1.43;;;;;;;13.01;97.22;98964.53;5024646;28;20210;-64
2023/04/13 09:05:25;;;;;;;2.63;1.60;;;;;;;12.93;96.45;98964.34;5020163;28;20182;-66
2023/04/13 09:07:55;;;;;;;3.83;1.60;;;;;;;12.86;96.29;98965.78;5011187;28;20262;-66
2023/04/13 09:10:22;;;;;;;4.50;1.97;;;;;;;12.30;100.00;98972.84;5012381;28;20272;-63
2023/04/13 09:12:49;;;;;;;5.53;1.50;;;;;;;12.98;100.00;98977.69;5029905;28;20205;-64
2023/04/13 09:15:15;;;;;;;3.57;1.53;;;;;;;13.12;93.77;98980.91;5030552;28;20190;-66
2023/04/13 09:17:40;;;;;;;1.77;1.00;;;;;;;13.02;93.28;98973.94;5032975;28;20460;-64
2023/04/13 09:20:22;;;;;;;2.10;1.10;;;;;;;12.89;96.93;98986.22;5021882;28;20206;-73
2023/04/13 09:22:49;;;;;;;4.40;1.60;;;;;;;13.49;93.66;98985.59;4988783;28;20952;-74
2023/04/13 09:25:28;;;;;;;3.27;1.73;;;;;;;14.25;90.84;98979.94;5018323;28;20186;-74
2023/04/13 09:27:55;;;;;;;4.03;1.30;;;;;;;14.62;84.61;98979.25;5007795;28;20174;-75
2023/04/13 09:30:24;;;;;;;3.03;1.30;;;;;;;14.48;85.80;98983.06;5016535;28;20245;-79
2023/04/13 09:33:07;;;;;;;3.23;1.77;;;;;;;14.57;79.98;98978.03;5023738;28;20183;-73
2023/04/13 09:35:33;;;;;;;2.53;1.40;;;;;;;15.20;79.14;98977.56;5022942;28;20197;-74
2023/04/13 09:37:59;;;;;;;6.10;1.90;;;;;;;15.74;76.84;98989.88;5029976;28;20677;-74
2023/04/13 09:40:28;;;;;;;3.80;1.57;;;;;;;17.01;67.05;98985.59;5009940;28;20312;-72
2023/04/13 09:42:57;;;;;;;3.67;1.37;;;;;;;15.89;67.92;99000.63;5020802;28;20182;-75
2023/04/13 09:45:23;;;;;;;2.20;1.10;;;;;;;15.86;69.62;98988.75;5022638;28;20190;-73
2023/04/13 09:47:49;;;;;;;1.23;1.10;;;;;;;15.06;73.91;98993.53;5020756;28;20183;-75
2023/04/13 09:50:20;;;;;;;3.27;1.20;;;;;;;16.22;68.07;99001.78;5007601;28;20230;-72
2023/04/13 09:52:57;;;;;;;1.73;0.90;;;;;;;17.22;58.50;98993.81;5031208;28;20190;-74
2023/04/13 09:55:23;;;;;;;4.20;1.23;;;;;;;17.43;58.48;98996.03;5020511;28;20184;-73
2023/04/13 09:57:48;;;;;;;3.10;1.17;;;;;;;17.35;58.10;99005.59;5019935;28;20269;-73
2023/04/13 10:00:19;;;;;;;1.47;0.93;;;;;;;16.44;61.04;99002.31;5003270;28;20711;-73
2023/04/13 10:02:48;;;;;;;4.03;1.30;;;;;;;15.52;70.18;99010.03;5009661;28;20527;-73
2023/04/13 10:05:14;;;;;;;3.70;1.50;;;;;;;14.58;80.45;99005.56;5025868;28;20183;-73
2023/04/13 10:07:43;;;;;;;2.97;1.13;;;;;;;14.13;80.81;99012.06;5041636;28;20214;-73
2023/04/13 10:10:09;;;;;;;6.20;1.67;;;;;;;13.55;88.23;99008.34;5008801;28;20198;-74
2023/04/13 10:12:40;;;;;;;3.30;1.43;;;;;;;12.94;89.54;99006.47;4993621;28;20213;-74
2023/04/13 10:15:08;;;;;;;4.37;1.80;;;;;;;13.11;93.87;98999.91;5015947;28;20634;-73
2023/04/13 10:18:17;;;;;;;5.10;2.33;;;;;;;14.01;89.74;98998.41;5014583;28;20191;-74
2023/04/13 10:20:44;;;;;;;4.00;1.93;;;;;;;15.94;74.77;98995.84;4961112;28;20301;-77
2023/04/13 10:23:09;;;;;;;5.70;1.87;;;;;;;16.56;71.02;99003.72;5006080;28;21538;-73
2023/04/13 10:25:35;;;;;;;2.50;1.30;;;;;;;17.62;59.91;98996.78;5032646;28;20217;-74
2023/04/13 10:28:01;;;;;;;1.97;1.10;;;;;;;17.44;59.70;99012.47;5044013;28;20278;-73
2023/04/13 10:30:26;;;;;;;2.03;1.30;;;;;;;17.60;57.11;98998.75;5019586;28;20277;-74
2023/04/13 10:33:06;;;;;;;2.83;1.43;;;;;;;17.05;57.01;99008.50;5022320;28;20653;-72
2023/04/13 10:35:37;;;;;;;3.43;1.60;;;;;;;16.64;67.67;99010.75;5017111;28;20217;-71
2023/04/13 10:38:03;;;;;;;3.50;1.40;;;;;;;16.72;59.25;99013.44;4992201;28;20450;-71
2023/04/13 10:40:28;;;;;;;2.83;1.35;;;;;;;15.78;65.74;99023.16;5016901;28;20457;-76
2023/04/13 10:42:54;;;;;;;4.05;1.45;;;;;;;15.00;70.42;99018.22;5013453;28;20463;-73
2023/04/13 10:45:25;;;;;;;2.63;1.17;;;;;;;14.48;85.07;99021.06;5019025;28;20174;-73
2023/04/13 10:47:51;;;;;;;3.43;1.60;;;;;;;14.92;88.03;99020.69;5028605;28;20202;-73
2023/04/13 10:50:20;;;;;;;3.10;1.53;;;;;;;15.12;82.28;99017.13;5002427;28;20226;-75
2023/04/13 10:53:06;;;;;;;2.40;1.00;;;;;;;14.69;80.69;99020.97;5037422;28;20414;-70
2023/04/13 10:55:32;;;;;;;2.67;1.30;;;;;;;14.99;80.36;99026.94;5027618;28;20437;-74
2023/04/13 10:58:00;;;;;;;2.07;0.93;;;;;;;14.08;86.67;99016.78;5023308;28;20280;-75
2023/04/13 11:00:29;;;;;;;2.45;1.40;;;;;;;14.64;84.02;99016.16;4998256;28;20451;-73
2023/04/13 11:02:57;;;;;;;3.57;1.07;;;;;;;14.60;90.73;99013.97;4990889;28;20183;-74
2023/04/13 11:05:24;;;;;;;2.37;1.03;;;;;;;14.87;85.27;99015.09;5014869;28;20187;-74
2023/04/13 11:07:50;;;;;;;2.80;1.10;;;;;;;14.14;87.37;99017.09;5022591;28;20252;-75
2023/04/13 11:10:26;;;;;;;2.23;1.30;;;;;;;14.32;87.68;99012.06;5005160;28;20501;-74
2023/04/13 11:12:53;;;;;;;1.75;1.17;;;;;;;14.55;81.72;99006.66;5006812;28;20438;-75
2023/04/13 11:15:23;;;;;;;3.23;1.40;;;;;;;14.45;86.02;99006.66;5006443;28;20183;-75
2023/04/13 11:17:53;;;;;;;2.70;1.20;;;;;;;14.43;89.14;98999.97;4997428;28;20347;-74
2023/04/13 11:20:28;;;;;;;1.17;0.97;;;;;;;14.25;90.38;99008.41;4996909;28;20236;-74
2023/04/13 11:22:56;;;;;;;2.03;1.20;;;;;;;14.22;88.14;99005.25;5012902;28;20189;-76
2023/04/13 11:25:22;;;;;;;3.53;1.53;;;;;;;14.30;89.32;99000.22;5008698;28;20565;-74
2023/04/13 11:28:00;;;;;;;2.20;1.20;;;;;;;14.03;85.03;99009.44;5008513;28;20202;-74
2023/04/13 11:30:26;;;;;;;2.97;1.40;;;;;;;13.82;86.06;99017.28;4970220;28;21430;-72
2023/04/13 11:32:53;;;;;;;2.40;1.30;;;;;;;13.20;86.40;99010.31;5009810;28;20305;-72